Latest Weather Observations for Loxton

IDS60801

Issued at 5:32 am CDT Sunday 1 March 2015 (issued every 30 minutes, with the page automatically refreshed every 10 minutes)

About weather observations | Map of weather stations | Latest weather observations for SA | Other Formats
Station Details ID: 024024 Name: LOXTON RESEARCH CENTRE Lat: -34.44 Lon: 140.60 Height: 30.1 m
Data from the previous 72 hours. | See also: Recent months at Loxton
Date/Time
CDT
Temp
°C
App
Temp
°C
Dew
Point
Rel
Hum
%
Delta-T
°C
Wind Press
QNH
hPa
Press
MSL
hPa
Rain
since 9 am
mm
Dir
 
Spd
km/h
Gust
km/h
Spd
kts
Gust
kts
01/05:30am 15.2 13.2 11.5 78 2.0 SSW 13 20 7 11 1012.9 1012.7 0.0
01/05:00am 15.2 13.5 11.3 77 2.1 SSW 11 19 6 10 1012.1 1012.0 0.0
01/04:30am 15.2 13.6 11.7 79 1.9 SSW 11 15 6 8 1011.6 1011.5 0.0
01/04:00am 15.6 14.0 11.7 77 2.1 SSW 11 19 6 10 1011.3 1011.2 0.0
01/03:30am 16.3 14.3 11.5 73 2.6 SSW 13 17 7 9 1011.1 1011.0 0.0
01/03:00am 16.0 14.0 11.6 75 2.4 SSW 13 19 7 10 1011.0 1010.9 0.0
01/02:30am 16.5 14.2 11.7 73 2.6 SSW 15 26 8 14 1010.7 1010.6 0.0
01/02:00am 17.0 13.8 11.9 72 2.8 SSW 20 32 11 17 1010.6 1010.5 0.0
01/01:30am 17.4 13.8 11.7 69 3.1 SSW 22 35 12 19 1010.4 1010.3 0.0
01/01:00am 17.6 13.4 12.4 71 2.9 SSW 26 37 14 20 1010.2 1010.1 0.0
01/12:30am 17.9 13.5 12.9 72 2.8 SSW 28 46 15 25 1009.9 1009.8 0.0
01/12:08am 18.4 14.0 12.9 70 3.1 SSW 28 54 15 29 1009.6 1009.5 0.0
01/12:00am 18.7 14.9 13.6 72 2.9 SSW 26 39 14 21 1009.6 1009.5 0.0
 
Date/Time
CDT
Temp
°C
App
Temp
°C
Dew
Point
Rel
Hum
%
Delta-T
°C
Wind Press
QNH
hPa
Press
MSL
hPa
Rain
since 9 am
mm
Dir
 
Spd
km/h
Gust
km/h
Spd
kts
Gust
kts
28/11:30pm 19.6 16.1 14.4 72 3.0 SSW 26 41 14 22 1009.4 1009.3 0.0
28/11:15pm 19.8 16.1 15.0 74 2.8 SW 28 46 15 25 1009.3 1009.2 0.0
28/11:00pm 20.0 16.2 14.7 71 3.1 SW 28 44 15 24 1009.3 1009.2 0.0
28/10:38pm 20.2 16.5 15.1 72 3.0 SSW 28 48 15 26 1009.0 1008.9 0.0
28/10:30pm 20.3 17.1 15.2 72 3.0 SSW 26 39 14 21 1008.8 1008.7 0.0
28/10:00pm 20.5 17.3 15.3 72 3.1 SW 26 37 14 20 1008.7 1008.6 0.0
28/09:30pm 21.5 18.4 15.5 68 3.6 SW 26 39 14 21 1007.8 1007.7 0.0
28/09:00pm 22.1 19.2 16.2 69 3.6 SSW 26 39 14 21 1007.1 1007.0 0.0
28/08:35pm 22.8 19.2 15.3 62 4.5 SW 28 48 15 26 1006.4 1006.3 0.0
28/08:30pm 23.1 19.9 15.3 61 4.7 SW 26 43 14 23 1006.3 1006.2 0.0
28/08:00pm 24.2 19.7 13.8 52 6.1 SW 30 46 16 25 1005.3 1005.2 0.0
28/07:30pm 25.4 20.4 13.5 47 7.0 SSW 32 46 17 25 1004.3 1004.2 0.0
28/07:00pm 27.2 22.0 12.7 40 8.5 SW 32 48 17 26 1004.1 1004.0 0.0
28/06:55pm 27.7 22.3 12.3 38 8.9 SSW 32 50 17 27 1004.1 1004.0 0.0
28/06:30pm 28.7 23.3 12.8 37 9.4 SSW 33 48 18 26 1003.5 1003.4 0.0
28/06:00pm 30.7 24.5 12.5 32 10.8 SSW 37 56 20 30 1002.2 1002.1 0.0
28/05:30pm 34.3 27.7 11.3 24 13.6 SW 37 65 20 35 1001.3 1001.2 0.0
28/05:00pm 38.4 30.9 3.4 11 18.6 WSW 32 54 17 29 1000.3 1000.2 0.0
28/04:58pm 38.7 31.4 4.6 12 18.5 WSW 32 54 17 29 1000.2 1000.1 0.0
28/04:30pm 39.8 33.9 3.8 11 19.5 W 24 41 13 22 1000.2 1000.1 0.0
28/04:00pm 39.6 34.4 3.3 10 19.4 W 20 33 11 18 1000.2 1000.1 0.0
28/03:30pm 39.2 33.2 3.5 11 19.2 WSW 24 35 13 19 1000.5 1000.4 0.0
28/03:00pm 39.7 34.3 6.2 13 18.8 WNW 24 41 13 22 1001.1 1001.0 0.0
28/02:30pm 39.1 33.2 5.8 13 18.5 WNW 26 43 14 23 1001.7 1001.6 0.0
28/02:00pm 38.5 32.9 5.5 13 18.1 W 24 37 13 20 1002.2 1002.1 0.0
28/01:45pm 38.1 31.6 4.6 12 18.1 WNW 28 50 15 27 1002.5 1002.4 0.0
28/01:30pm 37.8 32.2 5.3 13 17.8 W 24 41 13 22 1002.7 1002.6 0.0
28/01:00pm 37.6 31.8 6.3 14 17.3 WNW 26 46 14 25 1003.1 1003.0 0.0
28/12:30pm 36.8 32.3 8.5 18 16.2 NW 22 33 12 18 1003.7 1003.6 0.0
28/12:00pm 35.3 31.3 8.9 20 15.1 NNW 20 33 11 18 1004.2 1004.1 0.0
28/11:30am 34.9 30.4 10.1 22 14.4 NNW 24 35 13 19 1004.5 1004.4 0.0
28/11:00am 33.7 30.5 11.3 25 13.2 N 19 28 10 15 1004.6 1004.5 0.0
28/10:30am 32.5 31.1 13.3 31 11.6 N 13 20 7 11 1005.0 1004.9 0.0
28/10:00am 29.8 29.1 14.3 38 9.4 N 11 13 6 7 1005.2 1005.1 0.0
28/09:30am 28.6 27.0 14.0 40 8.8 N 15 20 8 11 1005.4 1005.3 0.0
28/09:00am 27.7 26.4 13.6 42 8.4 NNE 13 20 7 11 1005.2 1005.1 0.0
28/08:30am 26.2 25.8 14.1 47 7.2 NE 9 13 5 7 1005.2 1005.1 0.0
28/08:00am 24.2 23.9 14.4 54 5.8 NE 9 13 5 7 1005.1 1005.0 0.0
28/07:30am 23.0 23.4 15.2 61 4.7 ENE 7 9 4 5 1004.9 1004.8 0.0
28/07:00am 23.3 22.7 14.5 57 5.2 E 11 15 6 8 1004.7 1004.6 0.0
28/06:30am 23.3 22.7 14.5 57 5.2 E 11 13 6 7 1004.6 1004.5 0.0
28/06:00am 23.6 22.6 14.7 57 5.3 E 13 17 7 9 1004.7 1004.6 0.0
28/05:30am 23.4 22.3 15.2 60 4.9 ESE 15 19 8 10 1004.6 1004.5 0.0
28/05:00am 23.4 21.9 15.4 60 4.8 ESE 17 22 9 12 1004.4 1004.3 0.0
28/04:30am 23.7 23.0 15.4 59 5.0 SSE 13 19 7 10 1005.2 1005.1 0.0
28/04:00am 23.7 23.0 15.4 59 5.0 SSE 13 17 7 9 1005.6 1005.5 0.0
28/03:30am 23.6 22.5 15.3 59 5.0 SSE 15 20 8 11 1005.8 1005.7 0.0
28/03:00am 23.3 22.8 15.9 63 4.5 SSE 13 17 7 9 1006.2 1006.1 0.0
28/02:30am 23.6 22.6 15.7 61 4.8 S 15 20 8 11 1006.6 1006.5 0.0
28/02:00am 23.6 22.6 15.7 61 4.8 S 15 20 8 11 1006.9 1006.8 0.0
28/01:30am 23.8 22.0 15.5 59 5.0 S 19 26 10 14 1007.0 1006.9 0.0
28/01:00am 24.0 22.4 15.9 60 4.9 S 19 28 10 15 1007.4 1007.3 0.0
28/12:30am 24.5 22.8 15.8 58 5.3 SSW 19 26 10 14 1008.0 1007.9 0.0
28/12:00am 24.2 21.9 16.7 63 4.6 SW 24 35 13 19 1008.2 1008.1 0.0
 
Date/Time
CDT
Temp
°C
App
Temp
°C
Dew
Point
Rel
Hum
%
Delta-T
°C
Wind Press
QNH
hPa
Press
MSL
hPa
Rain
since 9 am
mm
Dir
 
Spd
km/h
Gust
km/h
Spd
kts
Gust
kts
27/11:30pm 27.8 25.0 13.3 40 8.6 SW 20 30 11 16 1008.0 1007.9 0.0
27/11:00pm 27.6 26.5 14.3 44 8.0 SW 13 20 7 11 1007.5 1007.4 0.0
27/10:30pm 25.7 27.7 18.8 65 4.4 ESE 6 11 3 6 1007.1 1007.0 0.0
27/10:00pm 26.1 29.6 19.6 67 4.2 CALM 0 0 0 0 1006.9 1006.8 0.0
27/09:30pm 26.5 29.3 18.0 59 5.4 CALM 0 0 0 0 1006.9 1006.8 0.0
27/09:00pm 27.2 30.0 17.9 56 5.9 CALM 0 0 0 0 1006.8 1006.7 0.0
27/08:30pm 27.7 30.9 18.9 58 5.7 CALM 0 0 0 0 1006.5 1006.4 0.0
27/08:00pm 28.8 31.5 17.8 51 7.0 CALM 0 0 0 0 1006.1 1006.0 0.0
27/07:30pm 30.2 30.7 16.5 43 8.6 NE 9 11 5 6 1005.9 1005.8 0.0
27/07:00pm 31.6 32.8 16.8 41 9.4 NE 6 7 3 4 1006.0 1005.9 0.0
27/06:30pm 32.7 32.9 14.7 33 11.1 NE 7 11 4 6 1005.8 1005.7 0.0
27/06:00pm 32.9 33.1 13.0 30 12.0 SE 4 9 2 5 1006.0 1005.9 0.0
27/05:30pm 33.2 32.8 12.5 28 12.4 E 6 9 3 5 1006.0 1005.9 0.0
27/05:00pm 33.4 33.4 13.7 30 12.0 ESE 6 11 3 6 1006.0 1005.9 0.0
27/04:30pm 33.9 33.6 12.6 27 12.8 ESE 6 11 3 6 1006.1 1006.0 0.0
27/04:00pm 33.2 32.7 12.2 28 12.5 E 6 7 3 4 1006.2 1006.1 0.0
27/03:30pm 33.5 31.8 11.2 25 13.1 SW 11 19 6 10 1006.7 1006.6 0.0
27/03:00pm 33.3 31.0 10.3 24 13.3 WSW 13 19 7 10 1007.0 1006.9 0.0
27/02:30pm 33.3 32.1 11.6 26 12.8 N 9 15 5 8 1007.6 1007.5 0.0
27/02:00pm 32.2 31.1 11.8 28 12.0 NNE 9 15 5 8 1008.2 1008.1 0.0
27/01:30pm 31.4 30.1 11.3 29 11.7 NE 9 20 5 11 1008.5 1008.4 0.0
27/01:00pm 31.3 30.1 11.7 30 11.5 NNE 9 17 5 9 1008.8 1008.7 0.0
27/12:30pm 29.6 28.5 11.9 33 10.3 W 9 15 5 8 1009.6 1009.5 0.0
27/12:00pm 29.3 28.5 11.0 32 10.5 S 6 9 3 5 1010.4 1010.3 0.0
27/11:30am 28.3 27.7 11.7 35 9.6 NW 6 9 3 5 1010.9 1010.8 0.0
27/11:00am 26.7 26.4 12.6 41 8.2 SSW 6 11 3 6 1011.2 1011.1 0.0
27/10:30am 25.3 25.0 12.7 45 7.3 W 6 11 3 6 1011.2 1011.1 0.0
27/10:00am 24.5 25.2 12.3 46 7.0 CALM 0 7 0 4 1011.3 1011.2 0.0
27/09:30am 22.8 22.5 12.7 53 5.8 E 6 9 3 5 1011.3 1011.2 0.0
27/09:00am 22.1 22.1 12.4 54 5.5 E 4 7 2 4 1011.3 1011.2 0.0
27/08:30am 20.5 19.9 12.3 59 4.6 SE 7 11 4 6 1011.2 1011.1 0.0
27/08:00am 18.6 18.0 11.7 64 3.8 SSE 6 9 3 5 1010.9 1010.8 0.0
27/07:30am 16.6 17.2 12.0 74 2.5 CALM 0 6 0 3 1010.5 1010.4 0.0
27/07:00am 15.4 15.1 11.5 77 2.1 SE 4 6 2 3 1010.5 1010.4 0.0
27/06:30am 15.7 14.8 11.4 75 2.3 SSE 7 9 4 5 1010.2 1010.1 0.0
27/06:00am 17.0 15.7 11.1 68 3.2 S 9 11 5 6 1010.0 1009.9 0.0
27/05:30am 17.2 15.9 11.3 68 3.2 S 9 13 5 7 1009.8 1009.7 0.0
27/05:00am 17.5 16.2 11.4 67 3.3 SSW 9 11 5 6 1010.0 1009.9 0.0
27/04:30am 18.0 17.1 11.4 65 3.6 S 7 9 4 5 1009.6 1009.5 0.0
27/04:00am 18.9 17.3 11.4 61 4.1 SSW 11 17 6 9 1009.9 1009.8 0.0
27/03:30am 19.5 17.9 11.5 60 4.4 S 11 17 6 9 1009.9 1009.8 0.0
27/03:00am 20.1 18.5 11.4 57 4.8 S 11 15 6 8 1009.9 1009.8 0.0
27/02:30am 20.8 18.8 11.4 55 5.2 S 13 15 7 8 1009.9 1009.8 0.0
27/02:00am 21.6 20.1 11.8 53 5.5 S 11 17 6 9 1010.1 1010.0 0.0
27/01:30am 22.2 20.3 11.9 52 5.8 S 13 17 7 9 1010.3 1010.2 0.0
27/01:00am 22.2 21.3 12.5 54 5.5 SSW 9 11 5 6 1010.5 1010.4 0.0
27/12:30am 22.6 21.6 12.4 52 5.8 S 9 15 5 8 1010.7 1010.6 0.0
27/12:00am 23.4 22.1 12.6 50 6.2 SSW 11 17 6 9 1010.9 1010.8 0.0
 
Date/Time
CDT
Temp
°C
App
Temp
°C
Dew
Point
Rel
Hum
%
Delta-T
°C
Wind Press
QNH
hPa
Press
MSL
hPa
Rain
since 9 am
mm
Dir
 
Spd
km/h
Gust
km/h
Spd
kts
Gust
kts
26/11:30pm 24.1 22.8 12.6 48 6.6 SSW 11 17 6 9 1010.8 1010.7 0.0
26/11:00pm 24.9 23.2 12.4 45 7.2 SSW 13 20 7 11 1010.6 1010.5 0.0
26/10:30pm 25.3 23.2 12.5 45 7.4 SSW 15 20 8 11 1010.8 1010.7 0.0
26/10:00pm 26.1 24.3 12.2 42 8.0 S 13 19 7 10 1010.7 1010.6 0.0
26/09:30pm 27.0 24.7 11.9 39 8.7 SSW 15 22 8 12 1010.5 1010.4 0.0
26/09:00pm 27.9 24.9 12.0 37 9.2 SSW 19 28 10 15 1010.1 1010.0 0.0
26/08:30pm 28.7 26.7 11.6 34 9.9 SSW 13 19 7 10 1009.7 1009.6 0.0
26/08:00pm 29.4 27.4 11.4 32 10.4 SSW 13 17 7 9 1009.3 1009.2 0.0
26/07:30pm 30.6 28.1 11.0 29 11.3 SSW 15 24 8 13 1009.0 1008.9 0.0
26/07:00pm 31.4 28.3 10.3 27 12.1 SSW 17 28 9 15 1008.7 1008.6 0.0
26/06:30pm 32.0 28.8 10.0 25 12.6 SSW 17 24 9 13 1008.5 1008.4 0.0
26/06:00pm 32.3 29.0 9.4 24 13.0 SSW 17 26 9 14 1008.4 1008.3 0.0
26/05:30pm 32.9 29.2 9.3 23 13.4 S 19 26 10 14 1008.4 1008.3 0.0
26/05:00pm 33.1 29.0 8.0 21 14.0 S 19 26 10 14 1008.5 1008.4 0.0
26/04:30pm 32.6 28.6 6.7 20 14.1 SSW 17 28 9 15 1008.7 1008.6 0.0
26/04:00pm 32.2 27.8 4.6 17 14.5 SSW 17 28 9 15 1008.8 1008.7 0.0
26/03:30pm 31.9 27.6 3.5 16 14.6 SSW 15 28 8 15 1009.3 1009.2 0.0
26/03:00pm 31.7 26.5 -0.2 13 15.4 SSE 17 26 9 14 1009.6 1009.5 0.0
26/02:30pm 30.7 25.9 0.3 14 14.7 SSW 15 26 8 14 1010.1 1010.0 0.0
26/02:00pm 31.2 26.9 0.7 14 14.9 S 13 26 7 14 1010.5 1010.4 0.0
26/01:30pm 30.3 26.2 2.2 16 14.0 SW 13 20 7 11 1010.9 1010.8 0.0
26/01:00pm 28.5 24.0 2.0 18 13.0 SSW 15 24 8 13 1011.4 1011.3 0.0
26/12:30pm 28.0 24.0 2.8 19 12.5 SSW 13 20 7 11 1011.7 1011.6 0.0
26/12:00pm 26.9 23.8 3.7 22 11.6 SSW 9 19 5 10 1011.9 1011.8 0.0
26/11:30am 25.6 22.4 3.2 23 11.0 SW 9 17 5 9 1012.4 1012.3 0.0
26/11:00am 24.2 21.1 3.6 26 10.1 SW 9 17 5 9 1012.8 1012.6 0.0
26/10:30am 23.0 20.0 4.0 29 9.3 SW 9 15 5 8 1013.0 1012.8 0.0
26/10:00am 21.4 18.8 6.1 37 7.7 SSW 9 17 5 9 1013.0 1012.8 0.0
26/09:30am 18.7 17.3 11.0 61 4.2 SW 9 13 5 7 1013.3 1013.1 0.0
26/09:00am 17.3 15.5 10.8 65 3.5 SW 11 19 6 10 1013.1 1012.9 0.0
26/08:30am 15.3 12.9 10.1 71 2.7 WSW 13 15 7 8 1012.5 1012.4 0.0
26/08:00am 14.1 12.0 9.8 75 2.2 WSW 11 13 6 7 1012.2 1012.1 0.0
26/07:30am 12.9 11.5 9.4 79 1.8 NNW 7 9 4 5 1011.1 1011.0 0.0
26/07:00am 12.8 10.9 9.0 78 1.9 WSW 9 11 5 6 1011.5 1011.4 0.0
26/06:30am 12.8 11.2 8.8 76 2.0 WSW 7 11 4 6 1011.4 1011.3 0.0
26/06:00am 13.3 10.9 8.5 72 2.4 WSW 11 15 6 8 1011.3 1011.2 0.0

Other Formats:

Comma delimited format used in spreadsheet applications
http://www.bom.gov.au/fwo/IDS60801/IDS60801.94682.axf

JavaScript Object Notation format (JSON) in row-major order
http://www.bom.gov.au/fwo/IDS60801/IDS60801.94682.json